Terminal Aerodrome Forecast
Issued by NWS

Home | Current Version | Previous Version | Text Only | Print | Product List | Glossary On
Versions: 1 2 3 4 5 6 7 8 9 10 11 12 13 14 15
336
FTUS41 KCAR 261120
TAFFVE
TAF
KFVE 261120Z 2612/2712 07009KT P6SM -SHRA OVC060
     FM261600 06008KT P6SM -RA OVC035
     FM261900 06008KT P6SM VCSH OVC025
     FM262300 06007KT P6SM OVC035
     FM270500 04006KT P6SM SCT025=

USA.gov is the U.S. government's official web portal to all federal, state and local government web resources and services.